createdAt,value
2018-04-14T00:01:43.309Z,19.93
2018-04-14T00:04:09.153Z,19.92
2018-04-14T00:06:34.994Z,19.94
2018-04-14T00:09:00.818Z,19.90
2018-04-14T00:11:26.677Z,19.92
2018-04-14T00:13:52.494Z,20.01
2018-04-14T00:16:18.430Z,19.95
2018-04-14T00:18:44.260Z,19.91
2018-04-14T00:21:10.077Z,19.92
2018-04-14T00:23:35.928Z,19.92
2018-04-14T00:26:01.753Z,19.86
2018-04-14T00:28:27.632Z,19.98
2018-04-14T00:30:53.493Z,19.91
2018-04-14T00:33:19.389Z,19.90
2018-04-14T00:35:45.202Z,19.98
2018-04-14T00:38:11.061Z,19.98
2018-04-14T00:40:36.877Z,19.98
2018-04-14T00:43:02.718Z,19.93
2018-04-14T00:45:28.578Z,20.02
2018-04-14T00:47:54.476Z,19.91
2018-04-14T00:50:20.302Z,19.90
2018-04-14T00:52:46.183Z,19.87
2018-04-14T00:55:12.075Z,19.93
2018-04-14T00:57:37.904Z,19.84
2018-04-14T01:00:03.796Z,20.00
2018-04-14T01:02:29.617Z,19.95
2018-04-14T01:04:55.486Z,20.01
2018-04-14T01:07:21.314Z,19.89
2018-04-14T01:09:47.167Z,19.97
2018-04-14T01:12:13.007Z,19.94
2018-04-14T01:14:38.830Z,19.93
2018-04-14T01:17:04.762Z,19.89
2018-04-14T01:19:30.599Z,19.89
2018-04-14T01:21:56.460Z,19.99
2018-04-14T01:24:22.312Z,20.01
2018-04-14T01:26:48.204Z,19.98
2018-04-14T01:29:14.965Z,20.01
2018-04-14T01:31:41.700Z,20.20
2018-04-14T01:34:07.512Z,20.11
2018-04-14T01:36:33.429Z,20.21
2018-04-14T01:38:59.237Z,20.06
2018-04-14T01:41:25.068Z,20.01
2018-04-14T01:43:50.907Z,20.11
2018-04-14T01:46:16.724Z,20.05
2018-04-14T01:48:42.598Z,20.13
2018-04-14T01:51:08.411Z,20.13
2018-04-14T01:53:34.240Z,20.12
2018-04-14T01:56:00.053Z,20.19
2018-04-14T01:58:25.917Z,20.22
2018-04-14T02:00:51.749Z,20.03
2018-04-14T02:03:17.569Z,20.08
2018-04-14T02:05:43.391Z,19.98
2018-04-14T02:08:10.000Z,20.08
2018-04-14T02:10:36.683Z,20.04
2018-04-14T02:13:03.293Z,20.14
2018-04-14T02:15:29.120Z,20.05
2018-04-14T02:17:54.933Z,20.11
2018-04-14T02:20:20.748Z,20.13
2018-04-14T02:22:46.593Z,20.04
2018-04-14T02:25:12.466Z,20.00
2018-04-14T02:27:38.273Z,20.02
2018-04-14T02:30:04.082Z,20.01
2018-04-14T02:32:29.940Z,20.12
2018-04-14T02:34:55.782Z,20.12
2018-04-14T02:37:22.437Z,20.08
2018-04-14T02:39:48.296Z,20.20
2018-04-14T02:42:14.129Z,20.12
2018-04-14T02:44:39.941Z,20.12
2018-04-14T02:47:05.780Z,20.21
2018-04-14T02:49:32.513Z,20.13
2018-04-14T02:51:58.361Z,20.06
2018-04-14T02:54:24.174Z,20.07
2018-04-14T02:56:50.097Z,20.15
2018-04-14T02:59:15.921Z,20.17
2018-04-14T03:01:41.771Z,20.20
2018-04-14T03:04:07.615Z,20.26
2018-04-14T03:06:33.458Z,20.11
2018-04-14T03:08:59.306Z,20.18
2018-04-14T03:11:25.141Z,20.19
2018-04-14T03:13:50.992Z,20.09
2018-04-14T03:16:16.810Z,20.14
2018-04-14T03:18:42.665Z,20.11
2018-04-14T03:21:08.476Z,20.16
2018-04-14T03:23:35.104Z,20.06
2018-04-14T03:26:01.884Z,19.98
2018-04-14T03:28:27.724Z,20.08
2018-04-14T03:30:53.541Z,19.97
2018-04-14T03:33:19.383Z,20.12
2018-04-14T03:35:45.196Z,20.18
2018-04-14T03:38:11.008Z,20.18
2018-04-14T03:40:36.836Z,20.23
2018-04-14T03:43:02.656Z,20.34
2018-04-14T03:45:28.640Z,20.36
2018-04-14T03:47:54.468Z,20.33
2018-04-14T03:50:20.311Z,20.32
2018-04-14T03:52:46.124Z,20.32
2018-04-14T03:55:12.842Z,20.36
2018-04-14T03:57:38.700Z,20.36
2018-04-14T04:00:05.457Z,20.35
2018-04-14T04:02:31.264Z,20.36
2018-04-14T04:04:57.108Z,20.28
2018-04-14T04:07:22.929Z,20.29
2018-04-14T04:09:48.773Z,20.29
2018-04-14T04:12:14.590Z,20.34
2018-04-14T04:14:40.525Z,20.37
2018-04-14T04:17:06.343Z,20.30
2018-04-14T04:19:38.265Z,20.25
2018-04-14T04:22:10.237Z,20.28
2018-04-14T04:24:42.218Z,20.17
2018-04-14T04:27:08.037Z,20.24
2018-04-14T04:29:33.854Z,20.32
2018-04-14T04:31:59.673Z,20.33
2018-04-14T04:34:26.377Z,20.34
2018-04-14T04:36:52.209Z,20.36
2018-04-14T04:39:18.066Z,20.29
2018-04-14T04:41:43.885Z,20.23
2018-04-14T04:44:09.808Z,20.34
2018-04-14T04:46:35.761Z,20.31
2018-04-14T04:49:01.581Z,20.28
2018-04-14T04:51:27.403Z,20.28
2018-04-14T04:53:54.132Z,20.31
2018-04-14T04:56:19.986Z,20.34
2018-04-14T04:58:45.845Z,20.33
2018-04-14T05:01:11.696Z,20.34
2018-04-14T05:03:37.504Z,20.31
2018-04-14T05:06:03.317Z,20.33
2018-04-14T05:08:29.140Z,20.33
2018-04-14T05:10:54.976Z,20.35
2018-04-14T05:13:20.850Z,20.32
2018-04-14T05:15:46.728Z,20.23
2018-04-14T05:18:12.566Z,20.15
2018-04-14T05:20:39.345Z,20.26
2018-04-14T05:23:06.117Z,20.26
2018-04-14T05:25:31.939Z,20.34
2018-04-14T05:27:57.793Z,20.33
2018-04-14T05:30:23.650Z,20.32
2018-04-14T05:32:49.503Z,20.31
2018-04-14T05:35:15.354Z,20.29
2018-04-14T05:37:41.190Z,20.32
2018-04-14T05:40:07.011Z,20.30
2018-04-14T05:42:32.830Z,20.34
2018-04-14T05:44:58.670Z,20.32
2018-04-14T05:47:24.486Z,20.24
2018-04-14T05:49:50.345Z,20.24
2018-04-14T05:52:16.169Z,20.20
2018-04-14T05:54:43.036Z,20.35
2018-04-14T05:57:09.903Z,20.33
2018-04-14T05:59:35.785Z,20.23
2018-04-14T06:02:01.614Z,20.32
2018-04-14T06:04:27.449Z,20.19
2018-04-14T06:06:53.277Z,20.20
2018-04-14T06:09:20.113Z,20.28
2018-04-14T06:11:46.767Z,20.29
2018-04-14T06:14:13.459Z,20.30
2018-04-14T06:16:39.344Z,20.27
2018-04-14T06:19:05.170Z,20.31
2018-04-14T06:21:31.017Z,20.23
2018-04-14T06:23:56.953Z,20.33
2018-04-14T06:26:22.794Z,20.32
2018-04-14T06:29:03.589Z,20.27
2018-04-14T06:31:29.429Z,20.37
2018-04-14T06:33:55.249Z,20.45
2018-04-14T06:36:21.153Z,20.55
2018-04-14T06:38:46.965Z,20.66
2018-04-14T06:41:12.782Z,20.56
2018-04-14T06:43:38.621Z,20.61
2018-04-14T06:46:04.591Z,20.61
2018-04-14T06:48:30.471Z,20.70
2018-04-14T06:50:56.298Z,20.65
2018-04-14T06:53:22.145Z,20.61
2018-04-14T06:55:47.974Z,20.62
2018-04-14T06:58:13.829Z,20.61
2018-04-14T07:00:39.645Z,20.55
2018-04-14T07:03:05.501Z,20.55
2018-04-14T07:05:32.165Z,20.63
2018-04-14T07:07:58.000Z,20.61
2018-04-14T07:10:24.675Z,20.51
2018-04-14T07:12:51.453Z,20.55
2018-04-14T07:15:17.323Z,20.48
2018-04-14T07:17:43.193Z,20.45
2018-04-14T07:20:09.014Z,20.52
2018-04-14T07:22:34.864Z,20.52
2018-04-14T07:25:00.700Z,20.50
2018-04-14T07:27:26.556Z,20.47
2018-04-14T07:29:52.397Z,20.50
2018-04-14T07:32:18.250Z,20.55
2018-04-14T07:34:44.125Z,20.49
2018-04-14T07:37:09.997Z,20.44
2018-04-14T07:39:35.835Z,20.49
2018-04-14T07:42:01.653Z,20.58
2018-04-14T07:44:27.501Z,20.61
2018-04-14T07:46:54.319Z,20.68
2018-04-14T07:49:20.214Z,20.64
2018-04-14T07:51:46.091Z,20.68
2018-04-14T07:54:11.941Z,20.73
2018-04-14T07:56:37.757Z,20.73
2018-04-14T07:59:03.814Z,20.73
2018-04-14T08:01:29.641Z,20.67
2018-04-14T08:03:55.499Z,20.76
2018-04-14T08:06:21.466Z,20.74
2018-04-14T08:08:47.287Z,20.69
2018-04-14T08:11:14.790Z,20.74
2018-04-14T08:13:40.621Z,20.61
2018-04-14T08:16:06.493Z,20.71
2018-04-14T08:18:32.344Z,20.60
2018-04-14T08:20:58.652Z,20.66
2018-04-14T08:23:24.602Z,20.69
2018-04-14T08:25:50.423Z,20.68
2018-04-14T08:28:17.597Z,20.69
2018-04-14T08:30:43.522Z,20.71
2018-04-14T08:33:09.363Z,20.63
2018-04-14T08:35:35.241Z,20.65
2018-04-14T08:38:01.072Z,20.65
2018-04-14T08:40:26.918Z,20.68
2018-04-14T08:42:53.227Z,20.72
2018-04-14T08:45:19.937Z,20.71
2018-04-14T08:47:45.894Z,20.66
2018-04-14T08:50:12.201Z,20.68
2018-04-14T08:52:38.041Z,20.64
2018-04-14T08:55:05.169Z,20.70
2018-04-14T08:57:31.639Z,20.67
2018-04-14T08:59:57.498Z,20.68
2018-04-14T09:02:24.899Z,20.71
2018-04-14T09:04:51.585Z,20.70
2018-04-14T09:07:18.139Z,20.76
2018-04-14T09:09:44.350Z,20.73
2018-04-14T09:12:10.946Z,20.74
2018-04-14T09:14:36.961Z,20.76
2018-04-14T09:17:02.981Z,20.73
2018-04-14T09:19:28.813Z,20.73
2018-04-14T09:21:54.652Z,20.78
2018-04-14T09:24:22.024Z,20.77
2018-04-14T09:26:48.515Z,20.74
2018-04-14T09:29:14.976Z,20.75
2018-04-14T09:31:42.975Z,20.74
2018-04-14T09:34:08.808Z,20.74
2018-04-14T09:36:34.634Z,20.71
2018-04-14T09:39:00.476Z,20.69
2018-04-14T09:41:26.297Z,20.71
2018-04-14T09:43:52.142Z,20.76
2018-04-14T09:46:18.004Z,20.73
2018-04-14T09:48:44.600Z,20.75
2018-04-14T09:51:10.461Z,20.74
2018-04-14T09:53:36.311Z,20.78
2018-04-14T09:56:03.201Z,20.78
2018-04-14T09:58:29.118Z,20.79
2018-04-14T10:01:00.837Z,20.78
2018-04-14T10:03:26.737Z,20.80
2018-04-14T10:05:52.569Z,20.80
2018-04-14T10:08:18.429Z,20.76
2018-04-14T10:10:44.442Z,20.77
2018-04-14T10:13:10.408Z,20.76
2018-04-14T10:15:36.237Z,20.76
2018-04-14T10:18:02.114Z,20.76
2018-04-14T10:20:27.946Z,20.79
2018-04-14T10:22:53.761Z,20.76
2018-04-14T10:25:19.589Z,20.79
2018-04-14T10:27:45.429Z,20.77
2018-04-14T10:30:12.251Z,20.75
2018-04-14T10:32:39.067Z,20.73
2018-04-14T10:35:04.932Z,20.71
2018-04-14T10:37:30.749Z,20.71
2018-04-14T10:39:57.497Z,20.76
2018-04-14T10:42:24.239Z,20.77
2018-04-14T10:44:50.069Z,20.77
2018-04-14T10:47:15.918Z,20.83
2018-04-14T10:49:41.788Z,20.78
2018-04-14T10:52:07.649Z,20.80
2018-04-14T10:54:33.477Z,20.80
2018-04-14T10:56:59.340Z,20.80
2018-04-14T10:59:25.214Z,20.81
2018-04-14T11:01:51.073Z,20.82
2018-04-14T11:04:16.923Z,20.82
2018-04-14T11:06:42.745Z,20.83
2018-04-14T11:09:08.578Z,20.78
2018-04-14T11:11:35.360Z,20.79
2018-04-14T11:14:01.180Z,20.73
2018-04-14T11:16:27.025Z,20.81
2018-04-14T11:18:52.899Z,20.79
2018-04-14T11:21:18.748Z,20.78
2018-04-14T11:23:44.577Z,20.78
2018-04-14T11:26:10.412Z,20.77
2018-04-14T11:28:36.244Z,20.74
2018-04-14T11:31:02.993Z,20.73
2018-04-14T11:33:28.846Z,20.75
2018-04-14T11:35:54.665Z,20.74
2018-04-14T11:38:20.509Z,20.76
2018-04-14T11:40:46.330Z,20.74
2018-04-14T11:43:12.177Z,20.73
2018-04-14T11:45:38.074Z,20.72
2018-04-14T11:48:03.903Z,20.73
2018-04-14T11:50:29.748Z,20.71
2018-04-14T11:52:55.572Z,20.72
2018-04-14T11:55:21.427Z,20.72
2018-04-14T11:57:47.259Z,20.71
2018-04-14T12:00:13.133Z,20.71
2018-04-14T12:02:39.012Z,20.69
2018-04-14T12:05:04.858Z,20.70
2018-04-14T12:07:30.699Z,20.70
2018-04-14T12:09:56.545Z,20.67
2018-04-14T12:12:22.372Z,20.66
2018-04-14T12:14:48.236Z,20.70
2018-04-14T12:17:14.129Z,20.66
2018-04-14T12:19:39.965Z,20.66
2018-04-14T12:22:05.788Z,20.64
2018-04-14T12:24:31.618Z,20.65
2018-04-14T12:26:57.433Z,20.64
2018-04-14T12:29:23.248Z,20.70
2018-04-14T12:31:50.055Z,20.69
2018-04-14T12:34:15.868Z,20.64
2018-04-14T12:36:41.698Z,20.71
2018-04-14T12:39:07.517Z,20.71
2018-04-14T12:41:33.369Z,20.73
2018-04-14T12:43:59.268Z,20.68
2018-04-14T12:46:25.089Z,20.63
2018-04-14T12:48:50.909Z,20.70
2018-04-14T12:51:16.716Z,20.74
2018-04-14T12:53:42.644Z,20.72
2018-04-14T12:56:08.456Z,20.75
2018-04-14T12:58:34.276Z,20.73
2018-04-14T13:01:00.125Z,20.73
2018-04-14T13:03:25.932Z,20.73
2018-04-14T13:05:51.784Z,20.72
2018-04-14T13:08:17.665Z,20.74
2018-04-14T13:10:44.394Z,20.70
2018-04-14T13:13:10.237Z,20.73
2018-04-14T13:15:36.076Z,20.72
2018-04-14T13:18:01.921Z,20.74
2018-04-14T13:20:27.740Z,20.66
2018-04-14T13:22:53.590Z,20.64
2018-04-14T13:25:19.404Z,20.68
2018-04-14T13:27:45.256Z,20.71
2018-04-14T13:30:11.072Z,20.68
2018-04-14T13:32:36.933Z,20.74
2018-04-14T13:35:02.795Z,20.77
2018-04-14T13:37:28.604Z,20.72
2018-04-14T13:39:54.424Z,20.73
2018-04-14T13:42:20.244Z,20.78
2018-04-14T13:44:46.120Z,20.86
2018-04-14T13:47:11.978Z,20.98
2018-04-14T13:49:37.841Z,21.02
2018-04-14T13:52:04.669Z,20.99
2018-04-14T13:54:30.506Z,21.05
2018-04-14T13:56:56.356Z,21.13
2018-04-14T13:59:22.177Z,21.05
2018-04-14T14:01:48.303Z,21.05
2018-04-14T14:04:14.131Z,21.03
2018-04-14T14:06:40.023Z,21.03
2018-04-14T14:09:06.663Z,21.00
2018-04-14T14:11:32.525Z,20.97
2018-04-14T14:13:58.356Z,21.00
2018-04-14T14:16:24.283Z,20.94
2018-04-14T14:18:50.129Z,20.97
2018-04-14T14:21:15.951Z,20.92
2018-04-14T14:23:41.772Z,20.94
2018-04-14T14:26:08.414Z,20.91
2018-04-14T14:28:34.336Z,20.92
2018-04-14T14:31:00.196Z,20.92
2018-04-14T14:33:26.008Z,20.94
2018-04-14T14:35:52.627Z,20.94
2018-04-14T14:38:18.536Z,20.93
2018-04-14T14:40:44.349Z,20.94
2018-04-14T14:43:10.162Z,20.95
2018-04-14T14:45:35.996Z,20.97
2018-04-14T14:48:02.696Z,20.98
2018-04-14T14:50:28.505Z,20.90
2018-04-14T14:52:55.333Z,20.94
2018-04-14T14:55:21.185Z,20.93
2018-04-14T14:57:47.047Z,20.92
2018-04-14T15:00:12.941Z,20.95
2018-04-14T15:02:38.773Z,20.92
2018-04-14T15:05:04.643Z,20.90
2018-04-14T15:07:30.473Z,20.94
2018-04-14T15:09:56.451Z,20.88
2018-04-14T15:12:22.265Z,20.90
2018-04-14T15:14:48.077Z,20.90
2018-04-14T15:17:13.901Z,20.83
2018-04-14T15:19:39.732Z,20.88
2018-04-14T15:22:05.804Z,20.82
2018-04-14T15:24:31.802Z,20.84
2018-04-14T15:26:57.756Z,20.90
2018-04-14T15:29:23.592Z,20.86
2018-04-14T15:31:49.548Z,20.86
2018-04-14T15:34:15.456Z,20.85
2018-04-14T15:36:42.198Z,20.82
2018-04-14T15:39:08.012Z,20.85
2018-04-14T15:41:33.948Z,20.84
2018-04-14T15:43:59.972Z,20.82
2018-04-14T15:46:25.812Z,20.90
2018-04-14T15:48:55.132Z,20.91
2018-04-14T15:51:21.396Z,20.88
2018-04-14T15:53:47.222Z,20.79
2018-04-14T15:56:13.051Z,20.88
2018-04-14T15:58:38.894Z,20.90
2018-04-14T16:01:04.796Z,20.85
2018-04-14T16:03:31.538Z,20.86
2018-04-14T16:05:57.401Z,20.84
2018-04-14T16:08:23.401Z,20.83
2018-04-14T16:10:49.239Z,20.82
2018-04-14T16:13:15.052Z,20.79
2018-04-14T16:15:40.873Z,20.77
2018-04-14T16:18:06.792Z,20.77
2018-04-14T16:20:32.716Z,20.71
2018-04-14T16:22:58.573Z,20.74
2018-04-14T16:25:24.394Z,20.70
2018-04-14T16:27:50.207Z,20.72
2018-04-14T16:30:16.112Z,20.71
2018-04-14T16:32:43.021Z,20.73
2018-04-14T16:35:08.949Z,20.74
2018-04-14T16:37:34.791Z,20.73
2018-04-14T16:40:00.735Z,20.72
2018-04-14T16:42:26.625Z,20.71
2018-04-14T16:44:52.555Z,20.71
2018-04-14T16:47:18.430Z,20.69
2018-04-14T16:49:44.273Z,20.66
2018-04-14T16:52:10.085Z,20.67
2018-04-14T16:54:35.902Z,20.65
2018-04-14T16:57:01.792Z,20.65
2018-04-14T16:59:27.697Z,20.64
2018-04-14T17:01:53.504Z,20.69
2018-04-14T17:04:19.344Z,20.60
2018-04-14T17:06:45.157Z,20.63
2018-04-14T17:09:11.091Z,20.64
2018-04-14T17:11:36.915Z,20.64
2018-04-14T17:14:02.757Z,20.64
2018-04-14T17:16:28.636Z,20.62
2018-04-14T17:18:54.575Z,20.61
2018-04-14T17:21:20.458Z,20.62
2018-04-14T17:23:46.272Z,20.63
2018-04-14T17:26:12.227Z,20.62
2018-04-14T17:28:38.046Z,20.67
2018-04-14T17:31:03.929Z,20.69
2018-04-14T17:33:29.816Z,20.69
2018-04-14T17:35:55.851Z,20.69
2018-04-14T17:38:21.697Z,20.69
2018-04-14T17:40:47.516Z,20.72
2018-04-14T17:43:13.388Z,20.73
2018-04-14T17:45:39.286Z,20.69
2018-04-14T17:48:05.213Z,20.72
2018-04-14T17:50:31.255Z,20.72
2018-04-14T17:52:57.197Z,20.70
2018-04-14T17:55:23.085Z,20.72
2018-04-14T17:57:48.997Z,20.76
2018-04-14T18:00:14.925Z,20.72
2018-04-14T18:02:40.865Z,20.73
2018-04-14T18:05:06.678Z,20.72
2018-04-14T18:07:32.605Z,20.72
2018-04-14T18:09:58.413Z,20.73
2018-04-14T18:12:25.213Z,20.73
2018-04-14T18:14:51.933Z,20.71
2018-04-14T18:17:17.816Z,20.72
2018-04-14T18:19:43.897Z,20.72
2018-04-14T18:22:09.769Z,20.69
2018-04-14T18:24:35.683Z,20.71
2018-04-14T18:27:02.122Z,20.65
2018-04-14T18:29:28.037Z,20.60
2018-04-14T18:31:54.893Z,20.56
2018-04-14T18:34:20.824Z,20.63
2018-04-14T18:36:46.721Z,20.66
2018-04-14T18:39:12.644Z,20.61
2018-04-14T18:41:39.743Z,20.65
2018-04-14T18:44:05.613Z,20.64
2018-04-14T18:46:31.535Z,20.64
2018-04-14T18:48:57.472Z,20.62
2018-04-14T18:51:23.833Z,20.65
2018-04-14T18:53:49.302Z,20.63
2018-04-14T18:56:15.221Z,20.59
2018-04-14T18:58:41.060Z,20.57
2018-04-14T19:01:06.925Z,20.60
2018-04-14T19:03:32.798Z,20.53
2018-04-14T19:05:58.714Z,20.53
2018-04-14T19:08:24.653Z,20.57
2018-04-14T19:10:51.083Z,20.45
2018-04-14T19:13:16.990Z,20.53
2018-04-14T19:15:42.838Z,20.46
2018-04-14T19:18:08.650Z,20.46
2018-04-14T19:20:34.490Z,20.47
2018-04-14T19:23:01.247Z,20.51
2018-04-14T19:25:28.084Z,20.45
2018-04-14T19:27:53.898Z,20.49
2018-04-14T19:30:19.741Z,20.48
2018-04-14T19:32:45.553Z,20.42
2018-04-14T19:35:11.453Z,20.35
2018-04-14T19:37:37.294Z,20.36
2018-04-14T19:40:03.117Z,20.46
2018-04-14T19:42:29.760Z,20.50
2018-04-14T19:44:56.514Z,20.32
2018-04-14T19:47:23.314Z,20.40
2018-04-14T19:49:49.130Z,20.47
2018-04-14T19:52:14.964Z,20.42
2018-04-14T19:54:40.873Z,20.39
2018-04-14T19:57:06.708Z,20.38
2018-04-14T19:59:32.553Z,20.32
2018-04-14T20:01:58.407Z,20.26
2018-04-14T20:04:24.269Z,20.32
2018-04-14T20:06:50.125Z,20.32
2018-04-14T20:09:16.072Z,20.36
2018-04-14T20:11:42.724Z,20.24
2018-04-14T20:14:09.507Z,20.32
2018-04-14T20:16:36.244Z,20.37
2018-04-14T20:19:03.039Z,20.42
2018-04-14T20:21:29.959Z,20.41
2018-04-14T20:23:56.509Z,20.48
2018-04-14T20:26:23.020Z,20.42
2018-04-14T20:28:50.840Z,20.34
2018-04-14T20:31:17.493Z,20.26
2018-04-14T20:33:44.507Z,20.30
2018-04-14T20:36:11.201Z,20.19
2018-04-14T20:38:38.217Z,20.21
2018-04-14T20:41:04.796Z,20.24
2018-04-14T20:43:31.564Z,20.52
2018-04-14T20:45:58.139Z,20.61
2018-04-14T20:48:25.004Z,20.69
2018-04-14T20:50:51.736Z,20.68
2018-04-14T20:53:18.585Z,20.67
2018-04-14T20:55:45.656Z,20.63
2018-04-14T20:58:12.260Z,20.54
2018-04-14T21:00:39.453Z,20.60
2018-04-14T21:03:06.178Z,20.57
2018-04-14T21:05:32.922Z,20.63
2018-04-14T21:07:59.706Z,20.63
2018-04-14T21:10:26.410Z,20.55
2018-04-14T21:12:53.220Z,20.60
2018-04-14T21:15:19.615Z,20.57
2018-04-14T21:17:46.250Z,20.58
2018-04-14T21:20:12.902Z,20.49
2018-04-14T21:22:39.635Z,20.46
2018-04-14T21:25:06.834Z,20.45
2018-04-14T21:27:33.494Z,20.49
2018-04-14T21:30:00.127Z,20.42
2018-04-14T21:32:26.698Z,20.39
2018-04-14T21:34:53.141Z,20.42
2018-04-14T21:37:19.777Z,20.32
2018-04-14T21:39:46.374Z,20.28
2018-04-14T21:42:12.929Z,20.21
2018-04-14T21:44:46.503Z,20.20
2018-04-14T21:47:13.285Z,20.30
2018-04-14T21:49:39.491Z,20.35
2018-04-14T21:52:06.131Z,20.35
2018-04-14T21:54:32.859Z,20.31
2018-04-14T21:56:59.660Z,20.38
2018-04-14T21:59:27.039Z,20.31
2018-04-14T22:01:53.839Z,20.34
2018-04-14T22:04:20.614Z,20.28
2018-04-14T22:06:47.957Z,20.28
2018-04-14T22:09:16.785Z,20.30
2018-04-14T22:11:43.592Z,20.31
2018-04-14T22:14:09.489Z,20.35
2018-04-14T22:16:35.417Z,20.37
2018-04-14T22:19:01.236Z,20.40
2018-04-14T22:21:27.045Z,20.38
2018-04-14T22:23:52.860Z,20.37
2018-04-14T22:26:18.671Z,20.45
2018-04-14T22:28:44.490Z,20.28
2018-04-14T22:31:10.334Z,20.40
2018-04-14T22:33:36.165Z,20.30
2018-04-14T22:36:02.128Z,20.28
2018-04-14T22:38:28.005Z,20.14
2018-04-14T22:40:53.818Z,20.17
2018-04-14T22:43:19.668Z,20.20
2018-04-14T22:45:45.477Z,20.33
2018-04-14T22:48:11.312Z,20.25
2018-04-14T22:50:37.123Z,20.33
2018-04-14T22:53:02.965Z,20.29
2018-04-14T22:55:28.850Z,20.38
2018-04-14T22:57:54.801Z,20.29
2018-04-14T23:00:20.743Z,20.40
2018-04-14T23:02:46.580Z,20.26
2018-04-14T23:05:12.461Z,20.23
2018-04-14T23:07:38.266Z,20.22
2018-04-14T23:10:04.066Z,20.21
2018-04-14T23:12:30.688Z,20.27
2018-04-14T23:14:56.501Z,20.28
2018-04-14T23:17:22.385Z,20.21
2018-04-14T23:19:48.188Z,20.23
2018-04-14T23:22:14.017Z,20.14
2018-04-14T23:24:39.819Z,20.24
2018-04-14T23:27:05.639Z,20.12
2018-04-14T23:29:31.473Z,20.10
2018-04-14T23:31:58.076Z,20.07
2018-04-14T23:34:23.922Z,20.17
2018-04-14T23:36:49.828Z,20.18
2018-04-14T23:39:15.772Z,20.20
2018-04-14T23:41:41.584Z,20.12
2018-04-14T23:44:07.521Z,20.10
2018-04-14T23:46:35.356Z,20.09
2018-04-14T23:49:01.196Z,20.21
2018-04-14T23:51:27.008Z,20.12
2018-04-14T23:53:52.821Z,20.13
2018-04-14T23:56:18.763Z,20.14
2018-04-14T23:58:45.568Z,20.19
